Greenspond, Canada
Current Conditions -  °F | °C
As of 9:00 AM on Sunday 23 Nov 2014 (Local Time) from CYQX Reporting Station
Broken Clouds Broken Clouds  
Wind Chill: 21°   Ceiling: 4800
Heat Index: 30°   Visibility: 15mi
Dew Point: 25°   Wind: 12mph
Humidity: 80%   Direction: 250°WSW
Pressure: 29.62"   Gusts: 25mph
Location:  49.05°N, 53.58°W
Report Text: CYQX 231200Z 25010G22KT 15SM SCT023 BKN048 BKN120 M01/M04 A2962 RMK SC4SC2AC1 SLP038
Loading
Personal Weather Stations






























Interactive Weather Map New forecast layout! Learn more

10-Day Weather Forecast

Advertisements
Track Severe Weather on mobile